Time;durP1;ratioP1;P1;durP2;ratioP2;P2;SDS_P1;SDS_P2;PMS_P1;PMS_P2;Temp;Humidity;BMP_temperature;BMP_pressure;BME280_temperature;BME280_humidity;BME280_pressure;Samples;Min_cycle;Max_cycle;Signal;HPM_P1;HPM_P2
2022/12/25 00:00:33;;;;;;;11.90;5.60;;;;;;;;;;5005113;28;20178;-52
2022/12/25 00:02:59;;;;;;;9.37;4.60;;;;;;;;;;4998444;28;20191;-52
2022/12/25 00:05:25;;;;;;;11.83;6.30;;;;;;;;;;4991252;28;20732;-53
2022/12/25 00:07:51;;;;;;;11.77;5.50;;;;;;;;;;4982816;28;20269;-52
2022/12/25 00:10:17;;;;;;;10.57;5.73;;;;;;;;;;4989221;28;20171;-52
2022/12/25 00:12:43;;;;;;;7.93;5.20;;;;;;;;;;4991656;28;20574;-52
2022/12/25 00:15:09;;;;;;;9.37;5.40;;;;;;;;;;4994907;28;20171;-52
2022/12/25 00:17:35;;;;;;;9.00;4.90;;;;;;;;;;4993671;28;20677;-52
2022/12/25 00:20:02;;;;;;;11.27;5.17;;;;;;;;;;5002126;28;20201;-52
2022/12/25 00:22:29;;;;;;;13.90;6.50;;;;;;;;;;5001458;28;20292;-52
2022/12/25 00:24:55;;;;;;;9.47;5.43;;;;;;;;;;5005386;28;20514;-52
2022/12/25 00:27:21;;;;;;;9.10;4.63;;;;;;;;;;5000485;28;20195;-52
2022/12/25 00:29:47;;;;;;;10.43;5.40;;;;;;;;;;4998207;28;20182;-52
2022/12/25 00:32:13;;;;;;;10.17;5.20;;;;;;;;;;4997616;28;20541;-52
2022/12/25 00:34:39;;;;;;;9.00;5.13;;;;;;;;;;4992845;28;20541;-52
2022/12/25 00:37:05;;;;;;;8.47;4.67;;;;;;;;;;4996717;28;20246;-52
2022/12/25 00:39:31;;;;;;;11.47;4.80;;;;;;;;;;4999476;28;20178;-52
2022/12/25 00:44:41;;;;;;;8.43;4.80;;;;;;;;;;5005399;28;20829;-52
2022/12/25 00:47:07;;;;;;;10.53;5.17;;;;;;;;;;4992314;28;20638;-52
2022/12/25 00:49:33;;;;;;;9.70;5.17;;;;;;;;;;5004511;28;20629;-52
2022/12/25 00:51:59;;;;;;;10.43;5.70;;;;;;;;;;5003498;28;20183;-52
2022/12/25 00:54:26;;;;;;;7.53;5.37;;;;;;;;;;4999309;28;20233;-52
2022/12/25 00:56:52;;;;;;;8.50;5.03;;;;;;;;;;5000947;28;20171;-52
2022/12/25 00:59:18;;;;;;;8.33;5.00;;;;;;;;;;5000224;28;20514;-52
2022/12/25 01:01:44;;;;;;;5.70;3.90;;;;;;;;;;5009670;28;20647;-52
2022/12/25 01:04:11;;;;;;;8.17;4.60;;;;;;;;;;4993129;28;20746;-52
2022/12/25 01:06:37;;;;;;;8.87;4.40;;;;;;;;;;4998906;28;20516;-52
2022/12/25 01:11:48;;;;;;;9.30;4.83;;;;;;;;;;5008877;28;20558;-52
2022/12/25 01:14:14;;;;;;;9.23;4.50;;;;;;;;;;5007488;28;20618;-52
2022/12/25 01:16:40;;;;;;;12.23;5.10;;;;;;;;;;5009336;28;20174;-52
2022/12/25 01:19:06;;;;;;;8.90;4.90;;;;;;;;;;5007371;28;20178;-52
2022/12/25 01:21:33;;;;;;;9.87;4.57;;;;;;;;;;5007878;28;20647;-52
2022/12/25 01:23:59;;;;;;;9.10;3.97;;;;;;;;;;5006962;28;20775;-52
2022/12/25 01:26:26;;;;;;;15.23;4.47;;;;;;;;;;5008822;28;20202;-52
2022/12/25 01:28:52;;;;;;;8.77;4.40;;;;;;;;;;5007119;28;20207;-52
2022/12/25 01:31:20;;;;;;;8.70;4.37;;;;;;;;;;5006833;28;20641;-52
2022/12/25 01:33:46;;;;;;;8.40;4.63;;;;;;;;;;5008291;28;20182;-53
2022/12/25 01:36:19;;;;;;;8.77;3.83;;;;;;;;;;5007273;28;20186;-52
2022/12/25 01:38:46;;;;;;;9.10;4.10;;;;;;;;;;4994055;28;20183;-52
2022/12/25 01:41:13;;;;;;;10.63;4.40;;;;;;;;;;4987415;28;20286;-52
2022/12/25 01:43:58;;;;;;;7.53;3.70;;;;;;;;;;5000468;28;20641;-52
2022/12/25 01:46:24;;;;;;;8.00;4.20;;;;;;;;;;4969873;28;20198;-52
2022/12/25 01:48:51;;;;;;;8.37;3.93;;;;;;;;;;4985243;28;20622;-53
2022/12/25 01:51:23;;;;;;;9.30;3.20;;;;;;;;;;4985631;28;20692;-52
2022/12/25 01:53:50;;;;;;;13.63;3.60;;;;;;;;;;4984515;28;21304;-52
2022/12/25 01:56:16;;;;;;;7.23;4.17;;;;;;;;;;4989408;28;20225;-52
2022/12/25 01:58:42;;;;;;;6.10;3.80;;;;;;;;;;4990334;28;20273;-52
2022/12/25 02:01:08;;;;;;;11.70;4.13;;;;;;;;;;5004781;28;20672;-53
2022/12/25 02:03:34;;;;;;;5.30;3.57;;;;;;;;;;5002262;28;20180;-52
2022/12/25 02:06:00;;;;;;;9.07;3.67;;;;;;;;;;5005171;28;20225;-53
2022/12/25 02:08:27;;;;;;;8.47;3.87;;;;;;;;;;5004911;28;20811;-53
2022/12/25 02:10:53;;;;;;;8.17;3.73;;;;;;;;;;4994228;28;20793;-53
2022/12/25 02:13:19;;;;;;;6.70;3.70;;;;;;;;;;5007394;28;20178;-53
2022/12/25 02:15:51;;;;;;;10.10;4.20;;;;;;;;;;5005591;28;20623;-53
2022/12/25 02:18:33;;;;;;;11.40;4.10;;;;;;;;;;5004966;28;20198;-52
2022/12/25 02:21:05;;;;;;;7.00;4.17;;;;;;;;;;5005346;28;20178;-52
2022/12/25 02:23:47;;;;;;;5.37;3.40;;;;;;;;;;5006690;28;20226;-53
2022/12/25 02:26:29;;;;;;;3.43;3.00;;;;;;;;;;5007599;28;20574;-53
2022/12/25 02:28:55;;;;;;;8.77;3.60;;;;;;;;;;4989428;28;20182;-52
2022/12/25 02:31:24;;;;;;;7.40;3.37;;;;;;;;;;4982383;28;20603;-52
2022/12/25 02:34:13;;;;;;;5.93;3.40;;;;;;;;;;5002841;28;20202;-53
2022/12/25 02:36:41;;;;;;;3.87;3.23;;;;;;;;;;5004963;28;20644;-52
2022/12/25 02:41:59;;;;;;;7.50;3.70;;;;;;;;;;5004993;28;20193;-53
2022/12/25 03:06:58;;;;;;;5.97;3.10;;;;;;;;;;5001805;28;20304;-53
2022/12/25 03:12:15;;;;;;;6.10;3.23;;;;;;;;;;4994566;28;20198;-53
2022/12/25 03:17:26;;;;;;;5.00;3.23;;;;;;;;;;5003879;28;20217;-53
2022/12/25 03:28:06;;;;;;;4.37;3.07;;;;;;;;;;5004517;28;20264;-52
2022/12/25 03:33:37;;;;;;;4.97;3.50;;;;;;;;;;4987322;28;20361;-53
2022/12/25 03:36:14;;;;;;;4.40;3.20;;;;;;;;;;4991375;28;20179;-53
2022/12/25 04:36:48;;;;;;;4.83;3.70;;;;;;;;;;4989115;28;20277;-53
2022/12/25 04:39:14;;;;;;;5.97;3.50;;;;;;;;;;4969216;28;20186;-52
2022/12/25 04:41:40;;;;;;;6.53;2.93;;;;;;;;;;4998761;28;20190;-53
2022/12/25 04:44:06;;;;;;;5.50;3.27;;;;;;;;;;5005972;28;20181;-52
2022/12/25 04:46:32;;;;;;;4.00;3.13;;;;;;;;;;4995342;28;20194;-52
2022/12/25 04:48:58;;;;;;;7.43;3.43;;;;;;;;;;5005110;28;20182;-52
2022/12/25 04:51:25;;;;;;;8.60;3.40;;;;;;;;;;5001077;28;20622;-51
2022/12/25 04:53:52;;;;;;;5.23;3.63;;;;;;;;;;5001391;28;20178;-52
2022/12/25 04:56:19;;;;;;;5.37;3.37;;;;;;;;;;5005946;28;20198;-52
2022/12/25 04:58:45;;;;;;;5.60;3.07;;;;;;;;;;5005751;28;20182;-52
2022/12/25 05:01:12;;;;;;;8.23;3.67;;;;;;;;;;5003073;28;20190;-52
2022/12/25 05:03:38;;;;;;;10.27;3.60;;;;;;;;;;4988515;28;20187;-52
2022/12/25 05:06:05;;;;;;;5.00;3.30;;;;;;;;;;4992164;28;20688;-52
2022/12/25 05:08:31;;;;;;;5.57;3.50;;;;;;;;;;4999905;28;20696;-52
2022/12/25 05:10:57;;;;;;;5.37;3.13;;;;;;;;;;4993463;28;20456;-53
2022/12/25 05:13:24;;;;;;;7.90;3.40;;;;;;;;;;4991015;28;20222;-52
2022/12/25 05:15:50;;;;;;;9.30;3.87;;;;;;;;;;4987584;28;20242;-52
2022/12/25 05:18:16;;;;;;;4.30;3.00;;;;;;;;;;5004460;28;20202;-52
2022/12/25 05:20:42;;;;;;;5.00;3.00;;;;;;;;;;4985904;28;20175;-52
2022/12/25 05:23:16;;;;;;;6.83;3.67;;;;;;;;;;5003090;28;20234;-52
2022/12/25 05:25:42;;;;;;;6.93;3.50;;;;;;;;;;4999949;28;20241;-52
2022/12/25 05:28:08;;;;;;;7.90;3.57;;;;;;;;;;4993558;28;20186;-52
2022/12/25 05:30:34;;;;;;;3.67;2.63;;;;;;;;;;5006778;28;20178;-52
2022/12/25 05:33:01;;;;;;;5.83;2.80;;;;;;;;;;5005674;28;20594;-52
2022/12/25 05:35:27;;;;;;;3.80;2.97;;;;;;;;;;5006981;28;20837;-52
2022/12/25 05:37:53;;;;;;;4.37;2.83;;;;;;;;;;4998379;28;20187;-52
2022/12/25 05:40:19;;;;;;;4.87;3.10;;;;;;;;;;5000946;28;20171;-52
2022/12/25 05:42:45;;;;;;;4.17;2.33;;;;;;;;;;5004904;28;20170;-52
2022/12/25 05:45:11;;;;;;;8.67;3.50;;;;;;;;;;5002559;28;20262;-52
2022/12/25 05:47:37;;;;;;;3.97;3.03;;;;;;;;;;4980696;28;20224;-52
2022/12/25 05:50:04;;;;;;;5.07;2.90;;;;;;;;;;4999980;28;20198;-52
2022/12/25 05:52:39;;;;;;;3.83;3.50;;;;;;;;;;4993986;28;20535;-52
2022/12/25 05:55:05;;;;;;;7.20;2.97;;;;;;;;;;5007029;28;20604;-52
2022/12/25 05:57:31;;;;;;;4.17;2.60;;;;;;;;;;5008814;28;20214;-52
2022/12/25 05:59:58;;;;;;;7.40;3.17;;;;;;;;;;4997959;28;20684;-52
2022/12/25 06:02:24;;;;;;;6.00;3.03;;;;;;;;;;4991080;28;20213;-52
2022/12/25 06:04:50;;;;;;;4.13;3.00;;;;;;;;;;5006166;28;20182;-53
2022/12/25 06:07:17;;;;;;;3.90;3.50;;;;;;;;;;4975831;28;20707;-52
2022/12/25 06:09:43;;;;;;;5.23;3.00;;;;;;;;;;4988476;28;20187;-52
2022/12/25 06:12:09;;;;;;;6.47;2.97;;;;;;;;;;4996716;28;20536;-52
2022/12/25 06:14:35;;;;;;;4.00;3.00;;;;;;;;;;5008368;28;20432;-52
2022/12/25 06:17:01;;;;;;;5.73;3.20;;;;;;;;;;5003287;28;20203;-53
2022/12/25 06:19:27;;;;;;;6.27;4.10;;;;;;;;;;5003754;28;20175;-52
2022/12/25 06:21:54;;;;;;;6.57;2.73;;;;;;;;;;5005070;28;20196;-52
2022/12/25 06:24:21;;;;;;;4.13;2.37;;;;;;;;;;5007309;28;20230;-52
2022/12/25 06:26:47;;;;;;;8.63;2.93;;;;;;;;;;5006274;28;20992;-52
2022/12/25 06:29:13;;;;;;;3.57;2.40;;;;;;;;;;4995279;28;20220;-52
2022/12/25 06:31:39;;;;;;;4.73;3.00;;;;;;;;;;4989123;28;20603;-52
2022/12/25 06:34:05;;;;;;;4.33;3.10;;;;;;;;;;5003216;28;20268;-53
2022/12/25 06:36:31;;;;;;;4.67;2.80;;;;;;;;;;5006606;28;20178;-53
2022/12/25 06:38:59;;;;;;;5.27;3.10;;;;;;;;;;5005711;28;20194;-52
2022/12/25 06:41:26;;;;;;;8.10;3.00;;;;;;;;;;5007699;28;20226;-53
2022/12/25 06:43:53;;;;;;;3.53;2.33;;;;;;;;;;4990097;28;20178;-52
2022/12/25 06:46:20;;;;;;;8.20;3.23;;;;;;;;;;5007571;28;20186;-52
2022/12/25 06:48:49;;;;;;;4.83;2.80;;;;;;;;;;5006204;28;20225;-52
2022/12/25 06:51:19;;;;;;;5.97;2.90;;;;;;;;;;4997179;28;20576;-52
2022/12/25 06:53:46;;;;;;;5.63;2.97;;;;;;;;;;4987923;28;20182;-52
2022/12/25 06:56:14;;;;;;;4.93;2.57;;;;;;;;;;4987924;28;20182;-52
2022/12/25 06:58:51;;;;;;;4.47;2.87;;;;;;;;;;5004383;28;20225;-52
2022/12/25 07:01:22;;;;;;;7.03;2.50;;;;;;;;;;5007615;28;20162;-52
2022/12/25 07:03:50;;;;;;;8.17;2.93;;;;;;;;;;5004726;28;20186;-52
2022/12/25 07:06:16;;;;;;;3.97;3.20;;;;;;;;;;5005805;28;20560;-52
2022/12/25 07:08:42;;;;;;;6.07;3.07;;;;;;;;;;5003941;28;20320;-52
2022/12/25 07:11:08;;;;;;;5.90;2.63;;;;;;;;;;4989677;28;20460;-53
2022/12/25 07:13:34;;;;;;;3.57;2.60;;;;;;;;;;5007221;28;20191;-53
2022/12/25 07:16:01;;;;;;;6.53;3.70;;;;;;;;;;5004769;28;20155;-53
2022/12/25 07:18:27;;;;;;;4.13;2.97;;;;;;;;;;4998634;28;20631;-52
2022/12/25 07:20:54;;;;;;;4.97;2.70;;;;;;;;;;4975851;28;20518;-53
2022/12/25 07:23:21;;;;;;;7.53;3.00;;;;;;;;;;4993533;28;20778;-52
2022/12/25 07:25:57;;;;;;;8.50;2.67;;;;;;;;;;4993290;28;21064;-53
2022/12/25 07:28:23;;;;;;;4.17;2.90;;;;;;;;;;4987277;28;20239;-52
2022/12/25 07:30:49;;;;;;;4.60;2.47;;;;;;;;;;5000448;28;20186;-53
2022/12/25 07:33:16;;;;;;;6.77;2.33;;;;;;;;;;5004603;28;20746;-52
2022/12/25 07:35:42;;;;;;;2.57;2.10;;;;;;;;;;4990679;28;20182;-53
2022/12/25 07:38:08;;;;;;;4.30;2.47;;;;;;;;;;4983166;28;20285;-53
2022/12/25 07:40:34;;;;;;;2.23;1.97;;;;;;;;;;5002700;28;20187;-52
2022/12/25 07:43:00;;;;;;;5.10;2.73;;;;;;;;;;4983128;28;20398;-53
2022/12/25 07:45:26;;;;;;;5.67;2.50;;;;;;;;;;5007104;28;20584;-52
2022/12/25 07:47:52;;;;;;;4.60;2.50;;;;;;;;;;5001681;28;20202;-52
2022/12/25 07:50:19;;;;;;;5.67;2.73;;;;;;;;;;5002223;28;20578;-53
2022/12/25 07:52:45;;;;;;;4.40;2.60;;;;;;;;;;4985746;28;20182;-52
2022/12/25 07:55:12;;;;;;;4.57;2.30;;;;;;;;;;4997586;28;20225;-52
2022/12/25 07:57:38;;;;;;;5.50;2.67;;;;;;;;;;5001527;28;20547;-52
2022/12/25 08:00:05;;;;;;;4.00;2.90;;;;;;;;;;4968581;28;20178;-52
2022/12/25 08:02:31;;;;;;;4.93;2.63;;;;;;;;;;5003408;28;20187;-52
2022/12/25 08:04:57;;;;;;;3.63;2.43;;;;;;;;;;4986583;28;20616;-52
2022/12/25 08:07:24;;;;;;;6.07;3.47;;;;;;;;;;5003997;28;20212;-52
2022/12/25 08:09:50;;;;;;;4.60;2.53;;;;;;;;;;5000452;28;20232;-52
2022/12/25 08:12:16;;;;;;;5.07;2.50;;;;;;;;;;5004861;28;20174;-52
2022/12/25 08:14:42;;;;;;;4.30;2.53;;;;;;;;;;4998676;28;20181;-53
2022/12/25 08:17:08;;;;;;;3.13;2.57;;;;;;;;;;4998228;28;20210;-53
2022/12/25 08:19:34;;;;;;;6.70;2.60;;;;;;;;;;4991591;28;20186;-53
2022/12/25 08:22:00;;;;;;;6.47;2.40;;;;;;;;;;4997825;28;20179;-52
2022/12/25 08:24:26;;;;;;;3.80;2.27;;;;;;;;;;5005867;28;20225;-52
2022/12/25 08:26:52;;;;;;;5.37;2.53;;;;;;;;;;5004586;28;20213;-52
2022/12/25 08:29:18;;;;;;;5.50;2.60;;;;;;;;;;5002964;28;20163;-52
2022/12/25 08:31:52;;;;;;;4.63;2.67;;;;;;;;;;5004321;28;20182;-52
2022/12/25 08:34:18;;;;;;;5.70;2.33;;;;;;;;;;5003526;28;20217;-52
2022/12/25 08:36:44;;;;;;;3.93;2.53;;;;;;;;;;4997038;28;20170;-52
2022/12/25 08:39:10;;;;;;;4.53;2.70;;;;;;;;;;5010021;28;20245;-53
2022/12/25 08:41:36;;;;;;;4.03;2.80;;;;;;;;;;4999494;28;20182;-53
2022/12/25 08:44:03;;;;;;;3.50;2.50;;;;;;;;;;4990886;28;20162;-52
2022/12/25 08:46:29;;;;;;;4.87;2.50;;;;;;;;;;4998110;28;20214;-53
2022/12/25 08:48:55;;;;;;;3.70;2.60;;;;;;;;;;5009877;28;20632;-53
2022/12/25 08:51:22;;;;;;;5.90;2.70;;;;;;;;;;4974618;28;20657;-53
2022/12/25 08:53:49;;;;;;;7.93;3.07;;;;;;;;;;4989809;28;20225;-52
2022/12/25 08:56:15;;;;;;;5.30;2.70;;;;;;;;;;4990017;28;20160;-53
2022/12/25 08:58:42;;;;;;;7.50;2.93;;;;;;;;;;4972824;28;20269;-52
2022/12/25 09:01:08;;;;;;;3.13;2.40;;;;;;;;;;4994313;28;20181;-52
2022/12/25 09:03:34;;;;;;;7.07;3.00;;;;;;;;;;5006928;28;20174;-53
2022/12/25 09:06:12;;;;;;;6.67;3.47;;;;;;;;;;5011145;28;20174;-52
2022/12/25 09:08:38;;;;;;;5.63;2.90;;;;;;;;;;5013697;28;20181;-52
2022/12/25 09:11:05;;;;;;;4.63;3.00;;;;;;;;;;5011919;28;20183;-52
2022/12/25 09:13:31;;;;;;;4.53;2.60;;;;;;;;;;5014153;28;20167;-52
2022/12/25 09:15:57;;;;;;;4.20;2.53;;;;;;;;;;5012771;28;20460;-53
2022/12/25 09:18:24;;;;;;;6.70;2.67;;;;;;;;;;5013328;28;20276;-54
2022/12/25 09:20:59;;;;;;;5.20;2.17;;;;;;;;;;5012320;28;20538;-54
2022/12/25 09:23:26;;;;;;;7.37;2.97;;;;;;;;;;5013080;28;20822;-54
2022/12/25 09:25:52;;;;;;;5.30;2.97;;;;;;;;;;5013819;28;20182;-53
2022/12/25 09:28:18;;;;;;;4.70;2.83;;;;;;;;;;5013625;28;20198;-53
2022/12/25 09:30:44;;;;;;;4.40;2.83;;;;;;;;;;5007358;28;20618;-53
2022/12/25 09:33:10;;;;;;;4.20;2.57;;;;;;;;;;5012079;28;20657;-53
2022/12/25 09:35:36;;;;;;;4.90;3.67;;;;;;;;;;5012254;28;20195;-53
2022/12/25 09:38:02;;;;;;;6.33;3.00;;;;;;;;;;5011969;28;20182;-53
2022/12/25 09:40:30;;;;;;;3.97;2.77;;;;;;;;;;5009516;28;20178;-53
2022/12/25 09:42:56;;;;;;;4.30;2.97;;;;;;;;;;5003712;28;20484;-53
2022/12/25 09:45:33;;;;;;;3.43;3.03;;;;;;;;;;5011896;28;20186;-53
2022/12/25 09:47:59;;;;;;;4.70;3.00;;;;;;;;;;5013051;28;20193;-54
2022/12/25 09:50:40;;;;;;;3.50;3.03;;;;;;;;;;5012657;28;20178;-54
2022/12/25 09:53:14;;;;;;;4.57;3.30;;;;;;;;;;4992179;28;20250;-53
2022/12/25 09:55:47;;;;;;;3.13;2.83;;;;;;;;;;4994704;28;20242;-53
2022/12/25 09:58:14;;;;;;;4.73;3.00;;;;;;;;;;5010375;28;20174;-54
2022/12/25 10:00:46;;;;;;;6.17;4.00;;;;;;;;;;5011681;28;20175;-55
2022/12/25 10:03:30;;;;;;;4.23;3.50;;;;;;;;;;5009797;28;20179;-55
2022/12/25 10:06:05;;;;;;;5.57;3.90;;;;;;;;;;5011559;28;20182;-55
2022/12/25 10:08:31;;;;;;;3.43;3.10;;;;;;;;;;5009967;28;20329;-55
2022/12/25 10:11:16;;;;;;;5.10;3.47;;;;;;;;;;5006439;28;20704;-55
2022/12/25 10:13:42;;;;;;;5.03;3.20;;;;;;;;;;5012353;28;20660;-55
2022/12/25 10:16:26;;;;;;;6.10;3.40;;;;;;;;;;5006943;28;20182;-55
2022/12/25 10:19:25;;;;;;;7.93;3.70;;;;;;;;;;4998839;28;20187;-54
2022/12/25 10:21:54;;;;;;;5.70;3.00;;;;;;;;;;4978923;28;20225;-55
2022/12/25 10:24:23;;;;;;;3.73;3.30;;;;;;;;;;5010665;28;20241;-55
2022/12/25 10:30:23;;;;;;;4.40;3.40;;;;;;;;;;5001637;28;20729;-55
2022/12/25 10:32:50;;;;;;;3.50;3.00;;;;;;;;;;5003546;28;22141;-55
2022/12/25 10:35:21;;;;;;;6.97;3.33;;;;;;;;;;4998424;28;20661;-55
2022/12/25 10:38:00;;;;;;;6.53;3.67;;;;;;;;;;5008654;28;20183;-55
2022/12/25 10:40:43;;;;;;;4.97;3.57;;;;;;;;;;5007143;28;20316;-55
2022/12/25 10:43:12;;;;;;;6.17;3.80;;;;;;;;;;5003569;28;20226;-55
2022/12/25 10:45:45;;;;;;;4.23;3.83;;;;;;;;;;5006204;28;20186;-55
2022/12/25 10:48:14;;;;;;;3.93;3.53;;;;;;;;;;4991984;28;20206;-55
2022/12/25 10:50:43;;;;;;;4.70;3.67;;;;;;;;;;5003078;28;20186;-55
2022/12/25 10:53:16;;;;;;;5.20;3.77;;;;;;;;;;5005442;28;20185;-54
2022/12/25 10:55:42;;;;;;;6.30;3.83;;;;;;;;;;5010681;28;20174;-55
2022/12/25 10:58:18;;;;;;;4.20;3.40;;;;;;;;;;5010979;28;20759;-54
2022/12/25 11:00:51;;;;;;;5.20;4.07;;;;;;;;;;5000054;28;20185;-55
2022/12/25 11:03:21;;;;;;;5.23;3.53;;;;;;;;;;4997920;28;20486;-55
2022/12/25 11:05:50;;;;;;;4.27;3.87;;;;;;;;;;5010242;28;20224;-55
2022/12/25 11:08:21;;;;;;;5.20;4.07;;;;;;;;;;5005971;28;20198;-55
2022/12/25 11:10:57;;;;;;;4.67;3.80;;;;;;;;;;5009044;28;20174;-55
2022/12/25 11:13:27;;;;;;;5.60;3.73;;;;;;;;;;5006834;28;20190;-55
2022/12/25 11:16:02;;;;;;;4.00;3.60;;;;;;;;;;5009997;28;20707;-54
2022/12/25 11:18:55;;;;;;;8.10;4.10;;;;;;;;;;5003495;28;20748;-55
2022/12/25 11:21:25;;;;;;;4.80;4.33;;;;;;;;;;5004424;28;20654;-55
2022/12/25 11:24:02;;;;;;;6.40;4.33;;;;;;;;;;5002250;28;20226;-55
2022/12/25 11:26:29;;;;;;;5.43;4.50;;;;;;;;;;5007299;28;20230;-54
2022/12/25 11:28:55;;;;;;;7.10;4.70;;;;;;;;;;5007415;28;20221;-55
2022/12/25 11:31:32;;;;;;;6.63;4.23;;;;;;;;;;5007010;28;20228;-55
2022/12/25 11:34:00;;;;;;;5.27;4.50;;;;;;;;;;5006412;28;20181;-55
2022/12/25 11:36:34;;;;;;;5.30;4.50;;;;;;;;;;5004957;28;20210;-55
2022/12/25 11:39:04;;;;;;;7.53;4.63;;;;;;;;;;4999118;28;20194;-54
2022/12/25 11:41:31;;;;;;;5.17;4.00;;;;;;;;;;4998473;28;20174;-54
2022/12/25 11:43:59;;;;;;;5.83;4.40;;;;;;;;;;4999574;28;20262;-55
2022/12/25 11:46:31;;;;;;;5.17;4.17;;;;;;;;;;5006055;28;20175;-55
2022/12/25 11:48:59;;;;;;;4.30;3.90;;;;;;;;;;5010610;28;20174;-55
2022/12/25 11:51:26;;;;;;;4.70;4.10;;;;;;;;;;5008340;28;20174;-55
2022/12/25 11:53:59;;;;;;;5.40;4.67;;;;;;;;;;5009988;28;20655;-54
2022/12/25 11:56:27;;;;;;;5.80;4.20;;;;;;;;;;5008215;28;20202;-55
2022/12/25 11:59:07;;;;;;;5.60;4.63;;;;;;;;;;4981602;28;20183;-55
2022/12/25 12:01:36;;;;;;;4.43;3.83;;;;;;;;;;5001047;28;20711;-55
2022/12/25 12:04:06;;;;;;;7.37;4.00;;;;;;;;;;5006123;28;20258;-55
2022/12/25 12:06:40;;;;;;;6.10;4.70;;;;;;;;;;5000873;28;20210;-55
2022/12/25 12:09:16;;;;;;;7.30;4.53;;;;;;;;;;5005301;28;20176;-55
2022/12/25 12:11:46;;;;;;;4.50;4.10;;;;;;;;;;5008262;28;20190;-55
2022/12/25 12:14:31;;;;;;;4.67;3.73;;;;;;;;;;5003910;28;20229;-55
2022/12/25 12:16:57;;;;;;;4.57;4.10;;;;;;;;;;5001756;28;20210;-55
2022/12/25 12:19:26;;;;;;;5.40;4.33;;;;;;;;;;5003300;28;20672;-56
2022/12/25 12:21:52;;;;;;;5.47;4.53;;;;;;;;;;5007694;28;20182;-55
2022/12/25 12:24:20;;;;;;;4.87;4.07;;;;;;;;;;5001278;28;20258;-55
2022/12/25 12:26:47;;;;;;;5.57;4.07;;;;;;;;;;5003981;28;20225;-54
2022/12/25 12:35:23;;;;;;;5.93;4.10;;;;;;;;;;5003065;28;20212;-51
2022/12/25 12:38:10;;;;;;;4.37;3.90;;;;;;;;;;5000311;28;20753;-52
2022/12/25 12:40:57;;;;;;;5.77;4.70;;;;;;;;;;5011346;28;20225;-54
2022/12/25 12:43:29;;;;;;;5.20;4.23;;;;;;;;;;5006245;28;20260;-52
2022/12/25 12:45:57;;;;;;;6.50;4.30;;;;;;;;;;5012543;28;20188;-53
2022/12/25 12:48:27;;;;;;;5.97;4.00;;;;;;;;;;5011774;28;20202;-51
2022/12/25 12:51:04;;;;;;;5.53;4.73;;;;;;;;;;5006916;28;20175;-52
2022/12/25 12:53:31;;;;;;;4.97;4.17;;;;;;;;;;5004807;28;20181;-52
2022/12/25 12:56:08;;;;;;;5.93;4.50;;;;;;;;;;5010882;28;20547;-52
2022/12/25 12:58:35;;;;;;;6.50;4.50;;;;;;;;;;5009132;28;20228;-52
2022/12/25 13:01:22;;;;;;;5.90;4.37;;;;;;;;;;4988220;28;20187;-52
2022/12/25 13:03:57;;;;;;;4.47;3.83;;;;;;;;;;5005377;28;20190;-52
2022/12/25 13:06:23;;;;;;;5.77;4.33;;;;;;;;;;5010558;28;20267;-52
2022/12/25 13:09:06;;;;;;;7.20;4.40;;;;;;;;;;5001662;28;20265;-51
2022/12/25 13:11:35;;;;;;;5.17;4.20;;;;;;;;;;5011360;28;20657;-53
2022/12/25 13:14:02;;;;;;;6.87;4.63;;;;;;;;;;4986387;28;20663;-51
2022/12/25 13:16:34;;;;;;;5.57;4.43;;;;;;;;;;5013344;28;20175;-52
2022/12/25 13:19:04;;;;;;;5.73;4.37;;;;;;;;;;5006585;28;20382;-53
2022/12/25 13:21:33;;;;;;;6.20;4.17;;;;;;;;;;4996927;28;21054;-52
2022/12/25 13:24:07;;;;;;;6.13;4.13;;;;;;;;;;5006659;28;20238;-52
2022/12/25 13:26:33;;;;;;;6.87;4.37;;;;;;;;;;4998913;28;20203;-53
2022/12/25 13:28:59;;;;;;;5.03;3.60;;;;;;;;;;5003521;28;20201;-53
2022/12/25 13:31:29;;;;;;;4.50;3.90;;;;;;;;;;5001033;28;20203;-53
2022/12/25 13:33:59;;;;;;;4.67;4.13;;;;;;;;;;5006813;28;20265;-53
2022/12/25 13:36:29;;;;;;;4.60;4.20;;;;;;;;;;5011752;28;20186;-52
2022/12/25 13:38:56;;;;;;;5.23;4.33;;;;;;;;;;5010446;28;20739;-52
2022/12/25 13:44:26;;;;;;;5.07;4.57;;;;;;;;;;5012018;28;20243;-53
2022/12/25 13:46:52;;;;;;;5.07;4.40;;;;;;;;;;5010067;28;20197;-52
2022/12/25 13:49:19;;;;;;;5.50;4.70;;;;;;;;;;5012621;28;20171;-51
2022/12/25 13:51:46;;;;;;;5.93;4.00;;;;;;;;;;5003508;28;21870;-52
2022/12/25 13:54:12;;;;;;;6.20;4.20;;;;;;;;;;4999376;28;20703;-53
2022/12/25 13:56:49;;;;;;;5.10;4.33;;;;;;;;;;5003667;28;20631;-52
2022/12/25 13:59:17;;;;;;;8.63;4.40;;;;;;;;;;5003769;28;20201;-52
2022/12/25 14:01:43;;;;;;;6.30;4.80;;;;;;;;;;5003750;28;20659;-54
2022/12/25 14:04:14;;;;;;;5.17;4.40;;;;;;;;;;5004004;28;20437;-53
2022/12/25 14:06:40;;;;;;;6.17;4.67;;;;;;;;;;5007906;28;20693;-52
2022/12/25 14:09:27;;;;;;;4.40;4.00;;;;;;;;;;5005681;28;20228;-52
2022/12/25 14:11:58;;;;;;;7.47;5.03;;;;;;;;;;5000026;28;20191;-55
2022/12/25 14:14:27;;;;;;;6.53;4.57;;;;;;;;;;5000946;28;20546;-53
2022/12/25 14:16:55;;;;;;;7.57;4.93;;;;;;;;;;5005059;28;20614;-52
2022/12/25 14:19:34;;;;;;;4.93;4.43;;;;;;;;;;5003738;28;20552;-51
2022/12/25 14:22:09;;;;;;;5.57;4.73;;;;;;;;;;5004736;28;20167;-52
2022/12/25 14:24:35;;;;;;;6.83;4.50;;;;;;;;;;4986341;28;20581;-53
2022/12/25 14:27:03;;;;;;;6.93;4.60;;;;;;;;;;5003604;28;21003;-51
2022/12/25 14:29:32;;;;;;;4.63;4.13;;;;;;;;;;5005807;28;20703;-52
2022/12/25 14:31:59;;;;;;;5.33;4.37;;;;;;;;;;5005579;28;20178;-51
2022/12/25 14:34:33;;;;;;;5.50;4.97;;;;;;;;;;5001987;28;20171;-53
2022/12/25 14:36:59;;;;;;;5.30;4.23;;;;;;;;;;5000233;28;20209;-52
2022/12/25 14:39:33;;;;;;;5.77;5.00;;;;;;;;;;5003968;28;20579;-52
2022/12/25 14:42:01;;;;;;;5.97;5.37;;;;;;;;;;5002299;28;20175;-52
2022/12/25 14:44:35;;;;;;;5.40;4.70;;;;;;;;;;4998550;28;20291;-54
2022/12/25 14:47:10;;;;;;;5.77;5.03;;;;;;;;;;5002021;28;20240;-53
2022/12/25 14:49:37;;;;;;;5.47;4.93;;;;;;;;;;4997974;28;20176;-54
2022/12/25 14:52:32;;;;;;;7.13;5.20;;;;;;;;;;4993880;28;20225;-52
2022/12/25 14:55:02;;;;;;;6.33;5.60;;;;;;;;;;4982189;28;20226;-52
2022/12/25 14:57:30;;;;;;;6.13;5.30;;;;;;;;;;5002451;28;20644;-52
2022/12/25 15:00:02;;;;;;;6.57;5.77;;;;;;;;;;5002262;28;20178;-53
2022/12/25 15:02:33;;;;;;;7.03;5.53;;;;;;;;;;5002562;28;20182;-55
2022/12/25 15:08:18;;;;;;;8.00;5.63;;;;;;;;;;4998670;28;20213;-53
2022/12/25 15:10:44;;;;;;;6.33;5.67;;;;;;;;;;4994300;28;20222;-54
2022/12/25 15:13:12;;;;;;;8.40;5.40;;;;;;;;;;4999279;28;20178;-53
2022/12/25 15:15:39;;;;;;;6.37;5.73;;;;;;;;;;5004900;28;20634;-54
2022/12/25 15:18:05;;;;;;;7.67;6.67;;;;;;;;;;4984448;28;20210;-52
2022/12/25 15:20:32;;;;;;;7.77;6.93;;;;;;;;;;5001324;28;20183;-53
2022/12/25 15:22:59;;;;;;;8.30;6.67;;;;;;;;;;4997996;28;20190;-53
2022/12/25 15:25:32;;;;;;;8.00;6.93;;;;;;;;;;4995405;28;20233;-51
2022/12/25 15:27:58;;;;;;;7.17;6.47;;;;;;;;;;4982321;28;20281;-53
2022/12/25 15:30:24;;;;;;;8.43;6.63;;;;;;;;;;5001978;28;20174;-52
2022/12/25 15:32:50;;;;;;;7.70;6.43;;;;;;;;;;5006460;28;20181;-54
2022/12/25 15:35:20;;;;;;;9.83;6.67;;;;;;;;;;5002449;28;20224;-53
2022/12/25 15:37:47;;;;;;;7.67;6.47;;;;;;;;;;5004075;28;20183;-54
2022/12/25 15:40:14;;;;;;;10.17;6.60;;;;;;;;;;5006157;28;20781;-53
2022/12/25 15:42:40;;;;;;;7.80;6.00;;;;;;;;;;5002674;28;20194;-52
2022/12/25 15:45:15;;;;;;;10.80;7.20;;;;;;;;;;4996400;28;20735;-54
2022/12/25 15:47:41;;;;;;;9.97;7.77;;;;;;;;;;4980259;28;20731;-53
2022/12/25 15:50:09;;;;;;;10.90;7.13;;;;;;;;;;4999532;28;20175;-54
2022/12/25 15:52:35;;;;;;;8.43;6.53;;;;;;;;;;4991875;28;20766;-55
2022/12/25 15:55:01;;;;;;;8.40;6.97;;;;;;;;;;5000045;28;20725;-54
2022/12/25 15:57:27;;;;;;;7.57;6.67;;;;;;;;;;5000151;28;20175;-53
2022/12/25 15:59:53;;;;;;;7.80;7.00;;;;;;;;;;5001098;28;20190;-53
2022/12/25 16:02:20;;;;;;;9.33;6.60;;;;;;;;;;5004689;28;20190;-52
2022/12/25 16:04:46;;;;;;;7.10;6.40;;;;;;;;;;5004689;28;20276;-52
2022/12/25 16:07:16;;;;;;;10.17;6.87;;;;;;;;;;5003543;28;20202;-52
2022/12/25 16:09:42;;;;;;;7.30;6.53;;;;;;;;;;5004785;28;20175;-53
2022/12/25 16:12:08;;;;;;;8.57;6.90;;;;;;;;;;4986660;28;20665;-52
2022/12/25 16:14:34;;;;;;;8.93;6.27;;;;;;;;;;5003033;28;20198;-53
2022/12/25 16:17:03;;;;;;;8.23;6.57;;;;;;;;;;4995945;28;20217;-52
2022/12/25 16:19:29;;;;;;;9.53;6.70;;;;;;;;;;5004450;28;20170;-53
2022/12/25 16:21:55;;;;;;;7.80;6.97;;;;;;;;;;4995250;28;20590;-52
2022/12/25 16:24:25;;;;;;;9.40;6.53;;;;;;;;;;4994493;28;20219;-55
2022/12/25 16:26:51;;;;;;;9.30;7.23;;;;;;;;;;4997739;28;20268;-51
2022/12/25 16:29:17;;;;;;;8.27;6.93;;;;;;;;;;5000289;28;20473;-53
2022/12/25 16:31:43;;;;;;;7.30;6.43;;;;;;;;;;4984439;28;20460;-53
2022/12/25 16:34:09;;;;;;;10.07;6.63;;;;;;;;;;4997238;28;20556;-53
2022/12/25 16:36:36;;;;;;;9.37;7.73;;;;;;;;;;4997045;28;20486;-51
2022/12/25 16:39:02;;;;;;;11.07;9.25;;;;;;;;;;5004275;28;20452;-51
2022/12/25 16:41:28;;;;;;;12.77;9.43;;;;;;;;;;4999850;28;21090;-50
2022/12/25 16:43:54;;;;;;;9.73;8.07;;;;;;;;;;5003015;28;20274;-51
2022/12/25 16:46:21;;;;;;;11.53;8.97;;;;;;;;;;5003615;28;20175;-51
2022/12/25 16:48:47;;;;;;;11.10;8.80;;;;;;;;;;5000979;28;20638;-50
2022/12/25 16:51:15;;;;;;;8.90;8.00;;;;;;;;;;4999532;28;20366;-52
2022/12/25 16:53:41;;;;;;;13.33;8.57;;;;;;;;;;5002199;28;20193;-50